createdAt,value
2017-11-22T00:00:42.848Z,95.50
2017-11-22T00:03:17.421Z,95.40
2017-11-22T00:06:09.845Z,95.40
2017-11-22T00:08:43.660Z,95.50
2017-11-22T00:11:18.641Z,95.60
2017-11-22T00:13:52.673Z,95.70
2017-11-22T00:16:26.553Z,95.80
2017-11-22T00:19:01.085Z,96.10
2017-11-22T00:21:36.220Z,96.20
2017-11-22T00:24:09.986Z,96.30
2017-11-22T00:26:45.989Z,96.40
2017-11-22T00:29:21.004Z,96.70
2017-11-22T00:35:05.372Z,96.60
2017-11-22T00:37:39.098Z,96.50
2017-11-22T00:40:13.442Z,96.40
2017-11-22T00:42:47.422Z,96.40
2017-11-22T00:48:21.247Z,95.80
2017-11-22T00:50:55.003Z,96.00
2017-11-22T00:56:45.684Z,96.10
2017-11-22T00:59:19.533Z,96.10
2017-11-22T01:01:54.419Z,95.70
2017-11-22T01:04:28.242Z,95.80
2017-11-22T01:07:03.276Z,95.80
2017-11-22T01:09:37.862Z,95.50
2017-11-22T01:12:13.849Z,95.50
2017-11-22T01:14:48.456Z,95.50
2017-11-22T01:17:29.868Z,95.50
2017-11-22T01:20:03.704Z,95.50
2017-11-22T01:25:40.372Z,95.10
2017-11-22T01:28:15.480Z,95.20
2017-11-22T01:30:53.857Z,94.90
2017-11-22T01:33:27.795Z,94.90
2017-11-22T01:36:03.725Z,94.90
2017-11-22T01:38:37.483Z,94.70
2017-11-22T01:41:17.476Z,93.90
2017-11-22T01:43:51.228Z,93.90
2017-11-22T01:46:35.113Z,93.60
2017-11-22T01:49:08.986Z,93.70
2017-11-22T01:51:54.196Z,93.70
2017-11-22T01:54:27.984Z,93.70
2017-11-22T01:57:07.907Z,93.70
2017-11-22T01:59:41.783Z,93.50
2017-11-22T02:02:16.382Z,93.10
2017-11-22T02:04:50.426Z,93.10
2017-11-22T02:07:27.060Z,93.40
2017-11-22T02:10:15.773Z,93.40
2017-11-22T02:12:49.657Z,94.00
2017-11-22T02:15:24.569Z,94.10
2017-11-22T02:17:58.360Z,94.50
2017-11-22T02:20:34.337Z,95.00
2017-11-22T02:23:08.125Z,94.90
2017-11-22T02:26:03.650Z,95.00
2017-11-22T02:28:37.462Z,95.50
2017-11-22T02:31:13.061Z,95.40
2017-11-22T02:33:47.026Z,95.50
2017-11-22T02:36:20.874Z,95.50
2017-11-22T02:38:54.681Z,95.50
2017-11-22T02:41:30.563Z,95.60
2017-11-22T02:44:04.754Z,95.90
2017-11-22T02:46:41.045Z,95.60
2017-11-22T02:49:15.638Z,95.60
2017-11-22T02:51:49.496Z,95.60
2017-11-22T02:54:23.315Z,95.70
2017-11-22T02:56:57.399Z,96.20
2017-11-22T02:59:32.168Z,96.30
2017-11-22T03:02:23.475Z,96.30
2017-11-22T03:04:57.351Z,96.20
2017-11-22T03:07:49.402Z,96.20
2017-11-22T03:10:23.229Z,95.90
2017-11-22T03:12:59.114Z,95.50
2017-11-22T03:15:32.974Z,95.20
2017-11-22T03:18:15.191Z,95.10
2017-11-22T03:20:49.120Z,95.10
2017-11-22T03:23:30.093Z,94.80
2017-11-22T03:26:03.991Z,94.50
2017-11-22T03:28:45.101Z,94.70
2017-11-22T03:31:18.908Z,94.70
2017-11-22T03:33:53.505Z,94.50
2017-11-22T03:36:34.987Z,94.30
2017-11-22T03:39:11.318Z,94.20
2017-11-22T03:41:46.985Z,94.30
2017-11-22T03:44:21.828Z,94.30
2017-11-22T03:46:55.633Z,94.30
2017-11-22T03:49:30.971Z,94.30
2017-11-22T03:52:14.390Z,94.30
2017-11-22T03:54:53.535Z,93.90
2017-11-22T03:57:27.513Z,94.10
2017-11-22T04:00:05.556Z,94.20
2017-11-22T04:02:45.753Z,94.20
2017-11-22T04:05:19.516Z,94.50
2017-11-22T04:07:55.199Z,94.70
2017-11-22T04:10:29.052Z,94.70
2017-11-22T04:13:02.866Z,94.90
2017-11-22T04:15:37.657Z,94.80
2017-11-22T04:18:11.689Z,95.10
2017-11-22T04:20:46.259Z,95.00
2017-11-22T04:23:21.129Z,95.10
2017-11-22T04:25:54.934Z,95.50
2017-11-22T04:28:28.835Z,95.40
2017-11-22T04:31:02.661Z,95.20
2017-11-22T04:33:37.349Z,95.90
2017-11-22T04:36:11.210Z,95.70
2017-11-22T04:38:46.125Z,96.00
2017-11-22T04:44:16.990Z,96.20
2017-11-22T04:46:51.636Z,95.20
2017-11-22T04:49:25.508Z,95.10
2017-11-22T04:52:00.049Z,95.00
2017-11-22T04:54:33.908Z,95.20
2017-11-22T04:57:08.686Z,95.60
2017-11-22T04:59:43.590Z,95.60
2017-11-22T05:02:18.958Z,95.70
2017-11-22T05:04:52.832Z,95.70
2017-11-22T05:07:27.369Z,95.60
2017-11-22T05:10:01.196Z,95.50
2017-11-22T05:12:36.095Z,95.40
2017-11-22T05:15:11.377Z,95.00
2017-11-22T05:17:45.231Z,95.00
2017-11-22T05:20:19.054Z,95.00
2017-11-22T05:22:52.953Z,94.90
2017-11-22T05:25:26.778Z,95.10
2017-11-22T05:28:01.221Z,95.00
2017-11-22T05:30:35.826Z,95.50
2017-11-22T05:33:09.598Z,95.20
2017-11-22T05:35:43.429Z,94.90
2017-11-22T05:38:17.159Z,95.30
2017-11-22T05:40:51.771Z,95.80
2017-11-22T05:43:28.520Z,95.50
2017-11-22T05:46:02.283Z,95.50
2017-11-22T05:48:36.798Z,95.10
2017-11-22T05:51:10.647Z,94.90
2017-11-22T05:53:46.347Z,95.10
2017-11-22T05:56:36.186Z,95.20
2017-11-22T05:59:12.037Z,95.50
2017-11-22T06:01:46.900Z,95.40
2017-11-22T06:04:21.248Z,95.30
2017-11-22T06:06:55.284Z,95.30
2017-11-22T06:09:30.315Z,94.90
2017-11-22T06:12:10.647Z,95.30
2017-11-22T06:14:51.146Z,95.20
2017-11-22T06:17:25.274Z,95.10
2017-11-22T06:19:59.146Z,94.80
2017-11-22T06:22:33.073Z,94.70
2017-11-22T06:25:08.794Z,94.30
2017-11-22T06:27:43.995Z,94.70
2017-11-22T06:30:30.633Z,94.60
2017-11-22T06:33:09.609Z,94.60
2017-11-22T06:35:47.380Z,94.60
2017-11-22T06:38:25.421Z,95.00
2017-11-22T06:41:03.067Z,95.10
2017-11-22T06:43:42.940Z,94.90
2017-11-22T06:46:25.145Z,94.60
2017-11-22T06:48:59.865Z,94.60
2017-11-22T06:51:35.900Z,94.60
2017-11-22T06:54:16.568Z,94.50
2017-11-22T06:56:50.435Z,94.70
2017-11-22T06:59:26.330Z,94.50
2017-11-22T07:02:00.036Z,94.50
2017-11-22T07:04:35.924Z,94.30
2017-11-22T07:07:13.369Z,94.50
2017-11-22T07:09:47.110Z,94.60
2017-11-22T07:12:23.845Z,94.70
2017-11-22T07:15:03.210Z,94.40
2017-11-22T07:17:36.979Z,94.40
2017-11-22T07:20:14.606Z,94.30
2017-11-22T07:22:49.771Z,94.10
2017-11-22T07:25:35.518Z,94.10
2017-11-22T07:28:09.479Z,94.10
2017-11-22T07:30:45.396Z,94.10
2017-11-22T07:33:20.018Z,94.10
2017-11-22T07:36:00.172Z,94.10
2017-11-22T07:38:36.037Z,94.20
2017-11-22T07:41:09.953Z,94.20
2017-11-22T07:43:43.695Z,93.80
2017-11-22T07:46:20.820Z,93.40
2017-11-22T07:48:54.662Z,93.40
2017-11-22T07:51:34.489Z,92.70
2017-11-22T07:54:08.412Z,92.70
2017-11-22T07:56:42.911Z,92.70
2017-11-22T07:59:16.901Z,92.80
2017-11-22T08:01:50.904Z,92.50
2017-11-22T08:04:26.033Z,92.40
2017-11-22T08:06:59.775Z,92.40
2017-11-22T08:09:34.771Z,92.60
2017-11-22T08:12:09.470Z,92.70
2017-11-22T08:14:43.325Z,92.70
2017-11-22T08:17:17.853Z,92.80
2017-11-22T08:19:53.830Z,92.80
2017-11-22T08:22:28.300Z,92.90
2017-11-22T08:25:08.140Z,93.00
2017-11-22T08:27:42.376Z,93.00
2017-11-22T08:30:20.656Z,93.10
2017-11-22T08:32:54.484Z,92.70
2017-11-22T08:35:28.370Z,92.60
2017-11-22T08:38:03.101Z,92.40
2017-11-22T08:40:37.951Z,92.30
2017-11-22T08:45:58.699Z,92.40
2017-11-22T08:48:37.792Z,92.20
2017-11-22T08:51:12.558Z,92.20
2017-11-22T08:53:48.457Z,91.60
2017-11-22T08:56:28.087Z,90.70
2017-11-22T08:59:03.895Z,87.30
2017-11-22T09:01:37.613Z,86.20
2017-11-22T09:04:13.383Z,85.90
2017-11-22T09:30:54.174Z,67.40
2017-11-22T09:33:30.666Z,66.20
2017-11-22T09:36:04.607Z,63.80
2017-11-22T09:38:39.452Z,62.40
2017-11-22T09:41:14.294Z,59.70
2017-11-22T09:43:49.246Z,57.80
2017-11-22T09:46:23.916Z,57.80
2017-11-22T09:48:58.847Z,57.70
2017-11-22T09:51:33.609Z,56.40
2017-11-22T09:54:07.658Z,55.90
2017-11-22T09:56:41.685Z,55.70
2017-11-22T09:59:16.392Z,57.10
2017-11-22T10:01:50.309Z,56.60
2017-11-22T10:04:24.469Z,56.40
2017-11-22T10:06:58.538Z,55.60
2017-11-22T10:09:33.062Z,55.00
2017-11-22T10:12:07.239Z,55.00
2017-11-22T10:14:41.048Z,57.10
2017-11-22T10:17:14.877Z,58.60
2017-11-22T10:19:54.440Z,58.60
2017-11-22T10:22:29.263Z,59.00
2017-11-22T10:25:09.992Z,59.20
2017-11-22T10:27:43.971Z,59.30
2017-11-22T10:30:18.712Z,59.00
2017-11-22T10:32:52.482Z,58.30
2017-11-22T10:35:26.458Z,58.50
2017-11-22T10:38:00.396Z,58.50
2017-11-22T10:40:36.439Z,61.00
2017-11-22T10:43:11.998Z,61.40
2017-11-22T10:45:45.870Z,61.10
2017-11-22T10:48:19.810Z,60.70
2017-11-22T10:50:53.891Z,61.40
2017-11-22T10:53:28.859Z,61.20
2017-11-22T10:56:06.726Z,60.90
2017-11-22T10:58:40.526Z,59.80
2017-11-22T11:01:16.270Z,60.10
2017-11-22T11:03:50.202Z,60.00
2017-11-22T11:06:25.900Z,58.90
2017-11-22T11:09:00.707Z,58.50
2017-11-22T11:11:34.577Z,58.50
2017-11-22T11:14:08.609Z,58.60
2017-11-22T11:16:42.521Z,58.90
2017-11-22T11:19:17.515Z,59.20
2017-11-22T11:21:52.872Z,59.00
2017-11-22T11:24:28.832Z,59.00
2017-11-22T11:27:02.772Z,59.20
2017-11-22T11:29:38.332Z,59.80
2017-11-22T11:35:16.457Z,59.50
2017-11-22T11:40:52.310Z,60.40
2017-11-22T11:43:38.700Z,60.30
2017-11-22T11:46:15.426Z,60.30
2017-11-22T11:48:53.298Z,60.70
2017-11-22T11:51:34.701Z,60.00
2017-11-22T11:54:08.534Z,61.20
2017-11-22T11:56:43.234Z,63.70
2017-11-22T11:59:20.540Z,64.30
2017-11-22T12:02:01.219Z,64.20
2017-11-22T12:04:41.636Z,64.20
2017-11-22T12:07:20.696Z,58.60
2017-11-22T12:09:54.811Z,56.40
2017-11-22T12:12:43.375Z,55.60
2017-11-22T12:15:18.301Z,55.60
2017-11-22T12:17:53.082Z,56.70
2017-11-22T12:20:32.549Z,58.20
2017-11-22T12:23:13.031Z,59.60
2017-11-22T12:25:47.180Z,59.60
2017-11-22T12:28:21.611Z,62.20
2017-11-22T12:30:56.606Z,62.70
2017-11-22T12:33:30.637Z,63.90
2017-11-22T12:49:15.945Z,65.90
2017-11-22T12:51:50.065Z,66.40
2017-11-22T12:54:26.498Z,67.50
2017-11-22T12:57:00.462Z,67.50
2017-11-22T12:59:35.546Z,68.10
2017-11-22T13:02:13.865Z,68.10
2017-11-22T13:04:47.754Z,67.90
2017-11-22T13:07:23.964Z,69.70
2017-11-22T13:10:00.643Z,69.60
2017-11-22T13:12:47.105Z,69.60
2017-11-22T13:15:30.819Z,69.20
2017-11-22T13:18:08.804Z,69.20
2017-11-22T13:20:43.529Z,69.90
2017-11-22T13:23:19.093Z,69.90
2017-11-22T13:25:52.991Z,69.90
2017-11-22T13:28:26.946Z,69.70
2017-11-22T13:31:02.852Z,70.50
2017-11-22T13:33:39.883Z,71.10
2017-11-22T13:36:16.450Z,69.70
2017-11-22T13:38:50.469Z,69.70
2017-11-22T13:41:30.869Z,70.30
2017-11-22T13:44:05.449Z,71.20
2017-11-22T13:46:43.541Z,71.20
2017-11-22T13:49:17.405Z,70.70
2017-11-22T13:51:51.223Z,69.10
2017-11-22T13:54:25.094Z,71.10
2017-11-22T13:56:58.934Z,71.80
2017-11-22T13:59:34.687Z,71.60
2017-11-22T14:02:12.555Z,71.40
2017-11-22T14:04:46.213Z,70.80
2017-11-22T14:07:20.192Z,71.80
2017-11-22T14:09:54.024Z,71.80
2017-11-22T14:12:27.991Z,71.70
2017-11-22T14:15:01.968Z,71.10
2017-11-22T14:17:37.951Z,71.20
2017-11-22T14:20:11.865Z,70.70
2017-11-22T14:22:50.974Z,71.20
2017-11-22T14:25:24.814Z,70.90
2017-11-22T14:27:59.918Z,70.60
2017-11-22T14:30:35.231Z,70.90
2017-11-22T14:33:09.162Z,70.20
2017-11-22T14:35:43.055Z,70.50
2017-11-22T14:38:17.732Z,70.90
2017-11-22T14:40:51.887Z,71.30
2017-11-22T14:43:26.317Z,71.60
2017-11-22T14:46:00.229Z,71.50
2017-11-22T14:48:34.051Z,71.30
2017-11-22T14:51:08.120Z,71.80
2017-11-22T14:53:42.071Z,72.30
2017-11-22T14:56:22.518Z,72.80
2017-11-22T14:58:56.557Z,72.80
2017-11-22T15:01:31.273Z,73.60
2017-11-22T15:04:06.186Z,73.30
2017-11-22T15:06:40.024Z,73.10
2017-11-22T15:09:14.304Z,73.30
2017-11-22T15:11:48.415Z,73.50
2017-11-22T15:14:22.661Z,73.60
2017-11-22T15:16:56.655Z,73.60
2017-11-22T15:19:31.582Z,73.90
2017-11-22T15:22:06.525Z,74.70
2017-11-22T15:24:40.538Z,74.70
2017-11-22T15:27:18.733Z,74.40
2017-11-22T15:29:53.406Z,76.10
2017-11-22T15:32:27.451Z,75.90
2017-11-22T15:35:03.640Z,75.80
2017-11-22T15:37:51.656Z,75.70
2017-11-22T15:40:32.559Z,75.90
2017-11-22T15:43:18.025Z,75.80
2017-11-22T15:46:18.913Z,75.40
2017-11-22T15:48:58.382Z,75.30
2017-11-22T15:51:37.667Z,76.10
2017-11-22T15:54:15.553Z,76.10
2017-11-22T15:56:49.777Z,74.90
2017-11-22T15:59:23.764Z,75.10
2017-11-22T16:01:57.903Z,75.70
2017-11-22T16:04:31.812Z,76.00
2017-11-22T16:07:05.769Z,75.80
2017-11-22T16:09:41.118Z,77.30
2017-11-22T16:12:15.804Z,77.30
2017-11-22T16:14:49.780Z,76.10
2017-11-22T16:17:36.875Z,76.20
2017-11-22T16:20:11.540Z,76.00
2017-11-22T16:22:45.427Z,75.90
2017-11-22T16:25:20.300Z,76.20
2017-11-22T16:27:54.212Z,76.20
2017-11-22T16:30:27.969Z,76.80
2017-11-22T16:33:05.150Z,76.50
2017-11-22T16:35:44.037Z,76.70
2017-11-22T16:38:18.592Z,76.60
2017-11-22T16:40:52.504Z,76.50
2017-11-22T16:43:27.247Z,72.60
2017-11-22T16:46:01.360Z,72.60
2017-11-22T16:51:52.488Z,70.90
2017-11-22T16:54:26.789Z,70.10
2017-11-22T16:57:04.266Z,70.00
2017-11-22T16:59:37.942Z,70.60
2017-11-22T17:02:12.405Z,68.50
2017-11-22T17:04:46.308Z,67.20
2017-11-22T17:07:20.993Z,65.90
2017-11-22T17:09:55.857Z,66.80
2017-11-22T17:12:29.822Z,66.90
2017-11-22T17:15:03.907Z,69.30
2017-11-22T17:17:38.125Z,69.10
2017-11-22T17:20:12.185Z,69.70
2017-11-22T17:22:46.114Z,69.10
2017-11-22T17:25:20.786Z,70.30
2017-11-22T17:27:57.451Z,70.60
2017-11-22T17:30:32.360Z,70.50
2017-11-22T17:33:07.312Z,71.20
2017-11-22T17:35:41.122Z,72.10
2017-11-22T17:38:15.719Z,73.10
2017-11-22T17:40:49.704Z,73.40
2017-11-22T17:43:23.547Z,73.20
2017-11-22T17:45:57.812Z,74.60
2017-11-22T17:48:31.422Z,75.20
2017-11-22T17:51:07.334Z,75.70
2017-11-22T17:53:41.180Z,76.50
2017-11-22T17:56:15.021Z,76.80
2017-11-22T17:58:49.609Z,77.50
2017-11-22T18:01:30.740Z,77.40
2017-11-22T18:04:04.731Z,77.60
2017-11-22T18:06:39.337Z,78.10
2017-11-22T18:09:13.408Z,79.30
2017-11-22T18:11:47.735Z,79.20
2017-11-22T18:14:21.814Z,80.30
2017-11-22T18:16:55.769Z,81.00
2017-11-22T18:19:30.346Z,81.20
2017-11-22T18:22:05.393Z,81.20
2017-11-22T18:24:39.088Z,81.70
2017-11-22T18:27:13.057Z,81.90
2017-11-22T18:29:47.639Z,82.20
2017-11-22T18:32:22.459Z,82.20
2017-11-22T18:34:57.190Z,82.70
2017-11-22T18:37:34.252Z,82.70
2017-11-22T18:40:08.788Z,82.90
2017-11-22T18:42:43.727Z,83.00
2017-11-22T18:45:17.591Z,82.00
2017-11-22T18:47:57.320Z,82.70
2017-11-22T18:50:31.336Z,82.60
2017-11-22T18:53:06.029Z,83.00
2017-11-22T18:55:40.069Z,83.00
2017-11-22T18:58:15.053Z,82.20
2017-11-22T19:00:49.691Z,81.40
2017-11-22T19:03:23.719Z,82.50
2017-11-22T19:05:57.718Z,82.40
2017-11-22T19:08:31.628Z,82.60
2017-11-22T19:11:07.229Z,83.00
2017-11-22T19:13:42.857Z,82.50
2017-11-22T19:16:16.759Z,82.20
2017-11-22T19:18:51.394Z,82.30
2017-11-22T19:21:26.020Z,82.50
2017-11-22T19:24:02.149Z,82.40
2017-11-22T19:26:36.316Z,82.90
2017-11-22T19:29:10.358Z,83.40
2017-11-22T19:31:45.047Z,83.40
2017-11-22T19:34:19.788Z,83.40
2017-11-22T19:36:53.541Z,83.50
2017-11-22T19:39:27.489Z,83.60
2017-11-22T19:42:01.958Z,83.70
2017-11-22T19:44:35.792Z,83.60
2017-11-22T19:47:10.599Z,83.50
2017-11-22T19:49:44.321Z,83.60
2017-11-22T19:52:18.519Z,83.10
2017-11-22T19:54:52.480Z,83.90
2017-11-22T19:57:26.252Z,82.40
2017-11-22T20:00:00.922Z,82.60
2017-11-22T20:02:34.997Z,82.60
2017-11-22T20:05:08.698Z,82.50
2017-11-22T20:07:49.166Z,82.70
2017-11-22T20:10:23.146Z,82.70
2017-11-22T20:12:57.920Z,82.50
2017-11-22T20:15:32.594Z,81.20
2017-11-22T20:18:07.081Z,81.00
2017-11-22T20:20:41.007Z,80.90
2017-11-22T20:23:14.774Z,80.50
2017-11-22T20:25:48.709Z,80.60
2017-11-22T20:28:22.571Z,81.00
2017-11-22T20:30:57.488Z,81.50
2017-11-22T20:33:31.393Z,81.50
2017-11-22T20:36:08.379Z,81.50
2017-11-22T20:38:42.271Z,81.60
2017-11-22T20:41:16.101Z,81.50
2017-11-22T20:43:50.200Z,81.20
2017-11-22T20:46:26.973Z,82.00
2017-11-22T20:49:00.798Z,82.00
2017-11-22T20:51:38.392Z,80.50
2017-11-22T20:54:12.172Z,80.80
2017-11-22T20:56:47.167Z,81.10
2017-11-22T20:59:26.190Z,81.30
2017-11-22T21:02:00.063Z,81.20
2017-11-22T21:04:36.817Z,82.40
2017-11-22T21:07:10.728Z,82.40
2017-11-22T21:09:45.768Z,82.50
2017-11-22T21:12:21.854Z,82.40
2017-11-22T21:14:55.691Z,83.00
2017-11-22T21:17:30.457Z,83.20
2017-11-22T21:20:04.553Z,83.10
2017-11-22T21:22:40.717Z,83.80
2017-11-22T21:25:14.632Z,83.40
2017-11-22T21:27:50.433Z,82.80
2017-11-22T21:30:25.201Z,82.10
2017-11-22T21:33:04.360Z,82.10
2017-11-22T21:35:39.347Z,82.40
2017-11-22T21:38:15.097Z,82.90
2017-11-22T21:40:48.928Z,82.90
2017-11-22T21:43:24.051Z,82.50
2017-11-22T21:45:58.149Z,83.30
2017-11-22T21:48:50.269Z,84.00
2017-11-22T21:51:24.915Z,84.30
2017-11-22T21:54:01.077Z,84.30
2017-11-22T21:56:35.127Z,84.30
2017-11-22T21:59:29.256Z,84.90
2017-11-22T22:02:04.508Z,84.80
2017-11-22T22:04:46.119Z,85.50
2017-11-22T22:07:20.219Z,85.40
2017-11-22T22:09:55.128Z,85.60
2017-11-22T22:12:31.250Z,85.50
2017-11-22T22:15:05.280Z,85.50
2017-11-22T22:17:45.271Z,85.30
2017-11-22T22:20:19.133Z,85.50
2017-11-22T22:23:06.695Z,84.70
2017-11-22T22:25:40.856Z,84.70
2017-11-22T22:28:16.445Z,85.30
2017-11-22T22:30:50.369Z,84.60
2017-11-22T22:33:24.067Z,84.70
2017-11-22T22:35:58.913Z,85.20
2017-11-22T22:38:33.544Z,86.10
2017-11-22T22:41:08.143Z,85.20
2017-11-22T22:43:42.866Z,85.10
2017-11-22T22:46:16.754Z,85.40
2017-11-22T22:48:52.758Z,85.90
2017-11-22T22:51:26.842Z,85.80
2017-11-22T22:54:01.002Z,86.00
2017-11-22T22:56:35.914Z,87.00
2017-11-22T22:59:16.621Z,86.80
2017-11-22T23:01:52.536Z,86.80
2017-11-22T23:04:27.313Z,86.10
2017-11-22T23:07:02.794Z,86.40
2017-11-22T23:09:37.090Z,86.30
2017-11-22T23:12:17.609Z,87.20
2017-11-22T23:14:56.404Z,87.20
2017-11-22T23:17:30.290Z,87.60
2017-11-22T23:20:13.903Z,88.30
2017-11-22T23:22:48.019Z,87.90
2017-11-22T23:25:25.119Z,87.60
2017-11-22T23:27:59.005Z,88.20
2017-11-22T23:30:38.063Z,87.90
2017-11-22T23:33:12.670Z,87.60
2017-11-22T23:35:52.739Z,87.60
2017-11-22T23:38:28.902Z,87.70
2017-11-22T23:41:02.860Z,87.90
2017-11-22T23:43:39.998Z,87.60
2017-11-22T23:46:13.906Z,88.20
2017-11-22T23:48:48.343Z,87.30
2017-11-22T23:51:24.836Z,88.00
2017-11-22T23:53:58.688Z,87.90
2017-11-22T23:56:39.589Z,88.30
2017-11-22T23:59:13.820Z,88.40
